Amity, OR (97101)

1:46 PM PDT on April 30, 2017 (GMT -0700)
MD7214 | | Change Station

Elev 488 ft 45.12 °N, 123.14 °W | Updated 42 minutes ago

Partly Cloudy
Partly Cloudy
56.0 °F
Feels Like 56.0 °F
N
3.0
Wind Variable Wind from SW

Today
High -- | Low -- °F
--% Chance of Precip.
Yesterday
High -- | Low -- °F
Precip. -- in
Pressure 30.37 in
Visibility 10.0 miles
Clouds Overcast 5500 ft
Dew Point 44 °F
Humidity 64%
Rainfall 0.16 in
Snow Depth Not available.
6:02 AM 8:17 PM
Waxing Crescent, 26% visible
METAR KMMV 301953Z AUTO VRB04KT 10SM OVC055 13/04 A3037 RMK AO2 SLP283 T01330044
Pressure 30.37 in
Visibility 10.0 miles
Clouds Overcast 5500 ft
Dew Point 44 °F
Humidity 64%
Rainfall 0.16 in
Snow Depth Not available.
6:02 AM 8:17 PM
Waxing Crescent, 26% visible
METAR KMMV 301953Z AUTO VRB04KT 10SM OVC055 13/04 A3037 RMK AO2 SLP283 T01330044

Get Severe Weather Alerts

Thanks for signing up!

Be on the lookout for a verification email in your inbox.

You'll start receiving the daily forecast at 8 AM.

×

10-Day Weather Forecast

Almanac

Astronomy

Apr. 30, 2017 Rise Set
Actual Time
Civil Twilight
Nautical Twilight
Astronomical Twilight
Moon
Length of Visible Light
Length of Day
Tomorrow will be .
, % of the Moon is Illuminated

Today's Extremes

State Highs State Lows

Community

WunderPhotos

WunderBlog® & News

Nearby

Air Quality

  Air Quality AQ Index Pollutant
Not available.

Snow Depth

Station Depth Elevation

Earthquake Activity

City Distance Mag. Time & Date
Minimum magnitude displayed is 2.5.

Coastal Water Temperatures

Place Temperature

Stations

Nearby Weather Stations

Station Location Temp. Windchill Dew Point Humidity Wind Precip. Elev Updated Type
                   

Watches & Warnings

There are currently no watches in effect.